createdAt,value
2023-05-15T00:01:44.847Z,9.10
2023-05-15T00:04:11.688Z,8.77
2023-05-15T00:06:38.976Z,8.40
2023-05-15T00:09:05.328Z,8.83
2023-05-15T00:11:31.599Z,8.50
2023-05-15T00:13:57.839Z,8.30
2023-05-15T00:16:24.330Z,9.23
2023-05-15T00:18:51.021Z,9.63
2023-05-15T00:21:17.532Z,9.57
2023-05-15T00:23:43.824Z,8.67
2023-05-15T00:26:10.145Z,8.73
2023-05-15T00:28:36.374Z,9.40
2023-05-15T00:31:02.732Z,9.83
2023-05-15T00:33:28.973Z,9.63
2023-05-15T00:35:55.279Z,9.63
2023-05-15T00:38:21.517Z,9.60
2023-05-15T00:40:48.737Z,10.03
2023-05-15T00:43:15.303Z,9.83
2023-05-15T00:45:42.159Z,9.27
2023-05-15T00:48:09.525Z,9.83
2023-05-15T00:50:36.335Z,9.70
2023-05-15T00:53:03.150Z,10.17
2023-05-15T00:55:29.894Z,10.03
2023-05-15T00:57:56.255Z,10.30
2023-05-15T01:00:22.634Z,9.53
2023-05-15T01:02:49.504Z,9.90
2023-05-15T01:05:15.831Z,10.03
2023-05-15T01:07:56.333Z,10.57
2023-05-15T01:10:22.648Z,9.63
2023-05-15T01:12:50.535Z,10.13
2023-05-15T01:15:16.919Z,10.23
2023-05-15T01:17:43.234Z,9.90
2023-05-15T01:20:10.542Z,9.73
2023-05-15T01:22:46.740Z,9.97
2023-05-15T01:25:31.187Z,10.00
2023-05-15T01:28:03.109Z,9.57
2023-05-15T01:30:32.244Z,10.17
2023-05-15T01:33:03.403Z,9.27
2023-05-15T01:35:43.911Z,10.03
2023-05-15T01:38:15.348Z,9.53
2023-05-15T01:40:42.173Z,10.07
2023-05-15T01:43:09.748Z,10.07
2023-05-15T01:45:36.996Z,9.33
2023-05-15T01:48:05.566Z,9.90
2023-05-15T01:50:32.840Z,9.30
2023-05-15T01:53:00.782Z,9.57
2023-05-15T01:55:27.776Z,10.10
2023-05-15T01:57:55.486Z,9.70
2023-05-15T02:00:22.037Z,9.73
2023-05-15T02:02:49.313Z,9.80
2023-05-15T02:05:16.187Z,9.00
2023-05-15T02:07:42.434Z,10.10
2023-05-15T02:10:09.549Z,9.77
2023-05-15T02:12:36.469Z,9.47
2023-05-15T02:15:03.261Z,9.30
2023-05-15T02:17:29.710Z,10.10
2023-05-15T02:19:55.991Z,10.13
2023-05-15T02:22:22.500Z,9.70
2023-05-15T02:24:48.760Z,9.30
2023-05-15T02:27:19.845Z,10.03
2023-05-15T02:29:55.258Z,9.57
2023-05-15T02:32:31.310Z,9.63
2023-05-15T02:35:00.659Z,9.67
2023-05-15T02:37:28.350Z,9.60
2023-05-15T02:39:57.933Z,9.27
2023-05-15T02:42:24.688Z,9.73
2023-05-15T02:44:53.310Z,9.33
2023-05-15T02:47:20.944Z,9.93
2023-05-15T02:49:47.349Z,9.90
2023-05-15T02:52:14.012Z,10.03
2023-05-15T02:54:40.969Z,10.53
2023-05-15T02:57:08.105Z,9.37
2023-05-15T02:59:34.732Z,10.00
2023-05-15T03:02:01.031Z,9.50
2023-05-15T03:04:27.327Z,10.40
2023-05-15T03:06:53.620Z,9.90
2023-05-15T03:09:19.871Z,10.33
2023-05-15T03:11:46.384Z,9.87
2023-05-15T03:14:12.649Z,10.27
2023-05-15T03:16:38.994Z,10.00
2023-05-15T03:19:05.484Z,11.17
2023-05-15T03:21:31.824Z,10.33
2023-05-15T03:23:58.107Z,10.13
2023-05-15T03:26:24.341Z,9.83
2023-05-15T03:28:51.014Z,10.47
2023-05-15T03:31:17.301Z,10.80
2023-05-15T03:33:45.635Z,9.80
2023-05-15T03:36:11.864Z,10.10
2023-05-15T03:38:38.189Z,10.80
2023-05-15T03:41:04.473Z,10.17
2023-05-15T03:43:30.719Z,10.50
2023-05-15T03:45:57.041Z,10.27
2023-05-15T03:48:23.411Z,10.50
2023-05-15T03:50:49.664Z,10.40
2023-05-15T03:53:15.915Z,10.50
2023-05-15T03:55:42.222Z,10.47
2023-05-15T03:58:08.451Z,11.23
2023-05-15T04:00:34.758Z,10.77
2023-05-15T04:03:01.462Z,11.20
2023-05-15T04:05:28.156Z,10.60
2023-05-15T04:07:54.667Z,10.60
2023-05-15T04:10:20.892Z,10.47
2023-05-15T04:12:47.947Z,10.50
2023-05-15T04:15:18.823Z,11.83
2023-05-15T04:17:45.766Z,11.13
2023-05-15T04:20:16.402Z,11.30
2023-05-15T04:22:43.468Z,11.00
2023-05-15T04:25:10.890Z,10.83
2023-05-15T04:27:37.607Z,10.73
2023-05-15T04:30:05.306Z,10.93
2023-05-15T04:32:33.754Z,11.67
2023-05-15T04:35:00.818Z,11.60
2023-05-15T04:37:27.375Z,11.80
2023-05-15T04:39:53.776Z,10.87
2023-05-15T04:42:20.125Z,12.40
2023-05-15T04:44:46.673Z,11.97
2023-05-15T04:47:13.031Z,12.17
2023-05-15T04:49:40.788Z,12.10
2023-05-15T04:52:07.296Z,12.57
2023-05-15T04:54:33.615Z,11.70
2023-05-15T04:56:59.999Z,11.80
2023-05-15T04:59:28.518Z,12.67
2023-05-15T05:01:54.848Z,12.80
2023-05-15T05:04:21.231Z,12.40
2023-05-15T05:06:47.488Z,14.43
2023-05-15T05:09:13.730Z,16.57
2023-05-15T05:11:43.574Z,14.97
2023-05-15T05:14:12.959Z,17.00
2023-05-15T05:16:39.349Z,16.33
2023-05-15T05:19:05.899Z,16.97
2023-05-15T05:21:32.716Z,17.43
2023-05-15T05:23:59.199Z,15.60
2023-05-15T05:26:26.129Z,16.60
2023-05-15T05:28:52.700Z,16.40
2023-05-15T05:31:20.870Z,15.70
2023-05-15T05:33:49.422Z,14.93
2023-05-15T05:36:15.814Z,15.87
2023-05-15T05:38:42.376Z,14.67
2023-05-15T05:41:08.623Z,15.83
2023-05-15T05:43:34.900Z,18.27
2023-05-15T05:46:01.805Z,16.63
2023-05-15T05:48:28.067Z,14.40
2023-05-15T05:50:54.514Z,14.03
2023-05-15T05:53:20.908Z,14.07
2023-05-15T05:55:47.481Z,14.20
2023-05-15T05:58:21.763Z,13.77
2023-05-15T06:00:51.069Z,11.90
2023-05-15T06:03:17.539Z,11.17
2023-05-15T06:05:44.093Z,11.93
2023-05-15T06:08:10.382Z,12.33
2023-05-15T06:10:36.669Z,11.10
2023-05-15T06:13:02.964Z,11.33
2023-05-15T06:15:29.480Z,12.20
2023-05-15T06:17:55.824Z,10.63
2023-05-15T06:20:22.996Z,11.33
2023-05-15T06:22:49.558Z,10.50
2023-05-15T06:25:15.815Z,9.27
2023-05-15T06:27:42.357Z,9.13
2023-05-15T06:30:09.313Z,8.53
2023-05-15T06:32:35.767Z,8.30
2023-05-15T06:35:02.357Z,8.30
2023-05-15T06:37:28.936Z,7.22
2023-05-15T06:39:56.439Z,7.60
2023-05-15T06:42:22.855Z,6.78
2023-05-15T06:44:49.698Z,6.53
2023-05-15T06:47:16.334Z,7.35
2023-05-15T06:49:42.596Z,6.10
2023-05-15T06:52:08.858Z,6.35
2023-05-15T06:54:35.233Z,5.80
2023-05-15T06:57:01.510Z,6.28
2023-05-15T06:59:27.780Z,5.78
2023-05-15T07:01:54.558Z,5.70
2023-05-15T07:04:21.076Z,6.07
2023-05-15T07:06:48.109Z,5.57
2023-05-15T07:09:14.328Z,5.57
2023-05-15T07:11:42.150Z,5.60
2023-05-15T07:14:08.470Z,5.70
2023-05-15T07:16:34.859Z,5.10
2023-05-15T07:19:01.297Z,5.28
2023-05-15T07:21:27.648Z,5.93
2023-05-15T07:23:53.895Z,5.53
2023-05-15T07:26:27.907Z,5.90
2023-05-15T07:28:58.987Z,5.95
2023-05-15T07:31:25.285Z,5.90
2023-05-15T07:33:51.544Z,5.65
2023-05-15T07:36:17.795Z,5.63
2023-05-15T07:38:44.098Z,5.53
2023-05-15T07:41:10.363Z,5.40
2023-05-15T07:43:36.585Z,5.32
2023-05-15T07:46:02.933Z,4.70
2023-05-15T07:48:29.267Z,5.05
2023-05-15T07:50:57.055Z,5.05
2023-05-15T07:53:23.335Z,5.40
2023-05-15T07:55:50.008Z,5.82
2023-05-15T07:58:17.670Z,6.20
2023-05-15T08:00:43.903Z,6.00
2023-05-15T08:03:10.820Z,6.50
2023-05-15T08:05:37.223Z,5.77
2023-05-15T08:08:03.539Z,6.03
2023-05-15T08:19:54.919Z,5.93
2023-05-15T08:22:21.308Z,6.03
2023-05-15T08:24:47.683Z,5.57
2023-05-15T08:27:13.975Z,5.40
2023-05-15T08:29:40.386Z,5.40
2023-05-15T08:32:07.742Z,6.07
2023-05-15T08:34:34.060Z,5.33
2023-05-15T08:37:00.452Z,5.23
2023-05-15T08:39:26.776Z,5.03
2023-05-15T08:41:57.212Z,5.30
2023-05-15T08:44:23.744Z,5.10
2023-05-15T08:46:52.178Z,5.33
2023-05-15T08:49:21.630Z,5.13
2023-05-15T08:51:48.379Z,5.13
2023-05-15T08:54:15.112Z,5.20
2023-05-15T08:56:41.882Z,4.90
2023-05-15T08:59:08.191Z,4.97
2023-05-15T09:01:34.819Z,5.27
2023-05-15T09:04:01.285Z,5.00
2023-05-15T09:06:28.110Z,4.97
2023-05-15T09:08:56.128Z,5.10
2023-05-15T09:11:23.993Z,4.80
2023-05-15T09:13:50.649Z,4.87
2023-05-15T09:16:16.973Z,5.30
2023-05-15T09:18:43.761Z,5.40
2023-05-15T09:21:25.780Z,4.90
2023-05-15T09:23:53.885Z,5.07
2023-05-15T09:26:21.491Z,5.00
2023-05-15T09:28:48.454Z,5.37
2023-05-15T09:31:14.946Z,5.13
2023-05-15T09:33:42.347Z,5.70
2023-05-15T09:36:09.382Z,4.90
2023-05-15T09:38:39.543Z,5.40
2023-05-15T09:41:06.888Z,5.07
2023-05-15T09:43:39.812Z,5.13
2023-05-15T09:46:08.182Z,5.20
2023-05-15T09:48:35.002Z,5.77
2023-05-15T09:51:02.418Z,4.90
2023-05-15T09:53:28.850Z,5.17
2023-05-15T09:55:55.182Z,5.73
2023-05-15T09:58:21.532Z,5.47
2023-05-15T10:00:49.564Z,6.30
2023-05-15T10:03:17.761Z,5.13
2023-05-15T10:05:44.624Z,5.53
2023-05-15T10:08:11.397Z,4.90
2023-05-15T10:10:37.955Z,4.73
2023-05-15T10:13:05.918Z,4.33
2023-05-15T10:15:32.509Z,5.10
2023-05-15T10:17:59.435Z,4.40
2023-05-15T10:20:26.720Z,4.63
2023-05-15T10:22:54.931Z,4.83
2023-05-15T10:25:25.738Z,4.60
2023-05-15T10:27:52.447Z,4.33
2023-05-15T10:30:19.395Z,4.63
2023-05-15T10:32:45.791Z,4.60
2023-05-15T10:35:12.376Z,4.97
2023-05-15T10:37:42.116Z,4.93
2023-05-15T10:40:10.268Z,4.50
2023-05-15T10:42:37.546Z,5.07
2023-05-15T10:45:04.803Z,5.30
2023-05-15T10:47:31.810Z,5.23
2023-05-15T10:49:58.463Z,5.43
2023-05-15T10:52:24.775Z,4.50
2023-05-15T10:54:52.989Z,5.00
2023-05-15T10:57:21.139Z,5.13
2023-05-15T10:59:47.483Z,4.10
2023-05-15T11:02:24.175Z,4.20
2023-05-15T11:05:00.476Z,3.97
2023-05-15T11:07:27.596Z,4.50
2023-05-15T11:09:54.566Z,4.93
2023-05-15T11:12:21.330Z,4.00
2023-05-15T11:14:56.849Z,3.63
2023-05-15T11:17:23.805Z,3.70
2023-05-15T11:19:50.021Z,4.13
2023-05-15T11:22:17.518Z,4.27
2023-05-15T11:24:54.187Z,4.60
2023-05-15T11:27:24.398Z,4.30
2023-05-15T11:30:03.632Z,4.07
2023-05-15T11:32:41.964Z,4.30
2023-05-15T11:35:22.152Z,4.67
2023-05-15T11:37:49.927Z,4.77
2023-05-15T11:40:19.423Z,4.40
2023-05-15T11:43:02.295Z,4.40
2023-05-15T11:45:32.840Z,4.37
2023-05-15T11:48:03.295Z,5.17
2023-05-15T11:50:30.922Z,4.60
2023-05-15T11:52:57.609Z,4.80
2023-05-15T11:55:24.762Z,4.47
2023-05-15T11:57:51.102Z,4.60
2023-05-15T12:00:17.412Z,4.50
2023-05-15T12:02:43.774Z,4.40
2023-05-15T12:05:10.418Z,4.37
2023-05-15T12:07:41.638Z,3.83
2023-05-15T12:10:09.919Z,3.47
2023-05-15T12:12:37.001Z,3.10
2023-05-15T12:15:05.565Z,3.10
2023-05-15T12:17:33.089Z,3.40
2023-05-15T12:20:00.009Z,3.30
2023-05-15T12:22:26.279Z,3.13
2023-05-15T12:24:52.593Z,2.93
2023-05-15T12:27:18.989Z,3.10
2023-05-15T12:29:45.808Z,3.27
2023-05-15T12:32:12.256Z,3.37
2023-05-15T12:34:38.659Z,3.33
2023-05-15T12:37:05.799Z,3.30
2023-05-15T12:39:32.458Z,3.07
2023-05-15T12:41:58.779Z,2.90
2023-05-15T12:44:26.400Z,3.30
2023-05-15T12:46:54.059Z,3.20
2023-05-15T12:49:23.366Z,3.57
2023-05-15T12:51:50.044Z,3.00
2023-05-15T12:54:17.037Z,3.00
2023-05-15T12:56:43.510Z,3.37
2023-05-15T12:59:10.444Z,2.73
2023-05-15T13:01:36.778Z,2.50
2023-05-15T13:04:03.536Z,2.93
2023-05-15T13:06:44.993Z,2.70
2023-05-15T13:09:12.607Z,3.00
2023-05-15T13:11:43.230Z,11.90
2023-05-15T13:14:11.234Z,2.57
2023-05-15T13:16:42.727Z,2.70
2023-05-15T13:19:09.755Z,2.83
2023-05-15T13:21:36.098Z,1.97
2023-05-15T13:24:02.414Z,1.80
2023-05-15T13:26:28.704Z,2.10
2023-05-15T13:28:55.088Z,3.43
2023-05-15T13:31:21.678Z,3.20
2023-05-15T13:33:48.126Z,2.75
2023-05-15T13:36:14.364Z,2.73
2023-05-15T13:38:40.665Z,3.10
2023-05-15T13:41:06.913Z,2.93
2023-05-15T13:43:33.161Z,2.60
2023-05-15T13:45:59.507Z,2.53
2023-05-15T13:48:25.816Z,2.50
2023-05-15T13:50:52.085Z,2.20
2023-05-15T13:53:18.688Z,2.43
2023-05-15T13:55:45.945Z,2.40
2023-05-15T13:58:13.016Z,2.00
2023-05-15T14:00:40.028Z,2.20
2023-05-15T14:03:06.436Z,1.70
2023-05-15T14:05:33.442Z,1.90
2023-05-15T14:07:59.959Z,2.20
2023-05-15T14:10:26.561Z,2.17
2023-05-15T14:12:53.114Z,2.10
2023-05-15T14:15:19.478Z,1.80
2023-05-15T14:17:48.362Z,2.20
2023-05-15T14:20:14.721Z,2.60
2023-05-15T14:22:41.118Z,2.40
2023-05-15T14:25:08.811Z,2.13
2023-05-15T14:27:35.409Z,2.30
2023-05-15T14:30:01.836Z,2.33
2023-05-15T14:32:28.094Z,2.33
2023-05-15T14:34:54.520Z,2.50
2023-05-15T14:37:20.920Z,2.77
2023-05-15T14:39:47.204Z,2.93
2023-05-15T14:42:13.441Z,2.57
2023-05-15T14:44:39.843Z,2.87
2023-05-15T14:47:07.702Z,2.90
2023-05-15T14:49:34.359Z,2.60
2023-05-15T14:52:00.656Z,2.60
2023-05-15T14:54:26.980Z,2.67
2023-05-15T14:56:54.353Z,2.40
2023-05-15T14:59:21.396Z,2.50
2023-05-15T15:01:47.685Z,3.07
2023-05-15T15:04:14.310Z,2.20
2023-05-15T15:06:41.277Z,1.90
2023-05-15T15:09:07.548Z,2.17
2023-05-15T15:11:33.855Z,2.10
2023-05-15T15:14:00.701Z,2.10
2023-05-15T15:16:27.218Z,2.37
2023-05-15T15:18:53.569Z,2.20
2023-05-15T15:21:19.817Z,2.30
2023-05-15T15:23:46.078Z,2.03
2023-05-15T15:26:12.328Z,2.10
2023-05-15T15:28:38.610Z,2.17
2023-05-15T15:31:04.964Z,1.90
2023-05-15T15:33:31.305Z,2.30
2023-05-15T15:35:57.628Z,1.73
2023-05-15T15:38:23.966Z,2.00
2023-05-15T15:40:50.400Z,2.13
2023-05-15T15:43:16.984Z,2.27
2023-05-15T15:45:43.318Z,2.20
2023-05-15T15:48:09.672Z,2.20
2023-05-15T15:50:36.047Z,2.07
2023-05-15T15:53:02.402Z,2.40
2023-05-15T15:55:28.691Z,1.93
2023-05-15T15:57:54.963Z,1.73
2023-05-15T16:00:21.235Z,2.13
2023-05-15T16:02:47.702Z,1.90
2023-05-15T16:05:14.112Z,2.30
2023-05-15T16:07:40.480Z,2.20
2023-05-15T16:10:12.946Z,2.07
2023-05-15T16:12:40.727Z,2.03
2023-05-15T16:15:20.997Z,2.00
2023-05-15T16:17:50.594Z,2.10
2023-05-15T16:20:17.018Z,2.20
2023-05-15T16:22:43.865Z,2.30
2023-05-15T16:25:10.227Z,2.10
2023-05-15T16:27:36.511Z,1.90
2023-05-15T16:30:02.828Z,2.20
2023-05-15T16:32:29.194Z,2.20
2023-05-15T16:34:55.620Z,2.33
2023-05-15T16:37:21.855Z,2.57
2023-05-15T16:39:48.098Z,2.10
2023-05-15T16:42:14.342Z,2.27
2023-05-15T16:44:40.737Z,2.00
2023-05-15T16:47:07.053Z,2.30
2023-05-15T16:49:33.589Z,2.50
2023-05-15T16:51:59.876Z,2.10
2023-05-15T16:54:26.194Z,2.80
2023-05-15T16:56:52.450Z,2.33
2023-05-15T16:59:18.685Z,2.30
2023-05-15T17:01:44.967Z,2.20
2023-05-15T17:04:11.436Z,2.00
2023-05-15T17:06:37.878Z,2.40
2023-05-15T17:09:04.159Z,2.13
2023-05-15T17:11:30.977Z,2.33
2023-05-15T17:13:57.241Z,2.50
2023-05-15T17:16:24.653Z,2.50
2023-05-15T17:18:51.532Z,2.43
2023-05-15T17:21:17.837Z,2.70
2023-05-15T17:23:44.098Z,2.77
2023-05-15T17:26:10.371Z,2.63
2023-05-15T17:28:37.998Z,2.53
2023-05-15T17:31:09.246Z,2.60
2023-05-15T17:33:35.494Z,2.90
2023-05-15T17:36:01.796Z,2.30
2023-05-15T17:38:28.047Z,2.50
2023-05-15T17:40:54.303Z,2.67
2023-05-15T17:43:20.635Z,2.77
2023-05-15T17:45:50.082Z,2.83
2023-05-15T17:48:16.369Z,3.00
2023-05-15T17:50:42.624Z,2.97
2023-05-15T17:53:08.919Z,3.23
2023-05-15T17:55:35.281Z,3.23
2023-05-15T17:58:01.613Z,3.00
2023-05-15T18:00:27.989Z,2.73
2023-05-15T18:02:54.321Z,3.10
2023-05-15T18:05:20.686Z,3.20
2023-05-15T18:07:48.198Z,2.67
2023-05-15T18:10:14.524Z,3.30
2023-05-15T18:12:40.853Z,2.90
2023-05-15T18:15:07.554Z,2.80
2023-05-15T18:17:33.846Z,2.77
2023-05-15T18:20:00.168Z,2.83
2023-05-15T18:22:27.686Z,2.80
2023-05-15T18:24:53.974Z,2.77
2023-05-15T18:27:20.291Z,2.90
2023-05-15T18:29:46.538Z,3.00
2023-05-15T18:32:13.102Z,2.87
2023-05-15T18:34:39.351Z,3.17
2023-05-15T18:37:05.965Z,2.73
2023-05-15T18:39:32.205Z,3.20
2023-05-15T18:41:59.875Z,2.93
2023-05-15T18:44:26.253Z,2.80
2023-05-15T18:46:52.737Z,3.53
2023-05-15T18:49:19.165Z,2.93
2023-05-15T18:51:45.565Z,3.10
2023-05-15T18:54:11.891Z,3.10
2023-05-15T18:56:38.655Z,3.30
2023-05-15T18:59:05.286Z,3.10
2023-05-15T19:01:31.660Z,3.10
2023-05-15T19:03:57.941Z,3.43
2023-05-15T19:06:24.201Z,3.17
2023-05-15T19:08:50.603Z,3.23
2023-05-15T19:11:17.172Z,2.90
2023-05-15T19:13:43.483Z,3.13
2023-05-15T19:16:10.284Z,3.40
2023-05-15T19:18:36.599Z,3.40
2023-05-15T19:21:04.686Z,3.47
2023-05-15T19:23:30.985Z,3.53
2023-05-15T19:25:57.241Z,3.13
2023-05-15T19:28:23.481Z,3.37
2023-05-15T19:30:49.976Z,3.53
2023-05-15T19:33:16.344Z,3.57
2023-05-15T19:35:42.655Z,3.63
2023-05-15T19:38:08.897Z,3.13
2023-05-15T19:40:35.732Z,3.37
2023-05-15T19:43:02.098Z,3.30
2023-05-15T19:45:30.393Z,3.47
2023-05-15T19:47:56.825Z,3.53
2023-05-15T19:50:23.096Z,3.30
2023-05-15T19:52:49.406Z,3.70
2023-05-15T19:55:15.805Z,3.37
2023-05-15T19:57:44.889Z,3.50
2023-05-15T20:00:12.356Z,3.77
2023-05-15T20:02:38.860Z,3.70
2023-05-15T20:05:05.488Z,3.63
2023-05-15T20:07:31.717Z,3.80
2023-05-15T20:09:57.983Z,4.10
2023-05-15T20:12:24.225Z,3.60
2023-05-15T20:14:50.478Z,4.10
2023-05-15T20:17:17.196Z,3.83
2023-05-15T20:19:43.565Z,4.07
2023-05-15T20:22:09.843Z,4.03
2023-05-15T20:24:36.114Z,3.80
2023-05-15T20:27:04.058Z,3.37
2023-05-15T20:29:30.935Z,3.90
2023-05-15T20:31:57.463Z,4.30
2023-05-15T20:34:24.072Z,4.03
2023-05-15T20:36:52.798Z,4.30
2023-05-15T20:39:19.744Z,4.43
2023-05-15T20:41:46.359Z,4.33
2023-05-15T20:44:12.618Z,4.40
2023-05-15T20:46:39.873Z,4.20
2023-05-15T20:49:06.259Z,4.10
2023-05-15T20:51:32.547Z,3.83
2023-05-15T20:53:58.784Z,4.30
2023-05-15T20:56:25.719Z,4.30
2023-05-15T20:58:51.957Z,4.23
2023-05-15T21:01:18.229Z,4.20
2023-05-15T21:03:44.706Z,4.60
2023-05-15T21:06:11.117Z,4.40
2023-05-15T21:08:37.343Z,4.47
2023-05-15T21:11:03.590Z,4.53
2023-05-15T21:13:29.866Z,4.67
2023-05-15T21:15:56.242Z,4.90
2023-05-15T21:18:22.542Z,4.40
2023-05-15T21:20:48.785Z,4.57
2023-05-15T21:23:15.072Z,4.70
2023-05-15T21:25:42.204Z,4.60
2023-05-15T21:28:08.463Z,4.83
2023-05-15T21:30:34.711Z,4.60
2023-05-15T21:33:01.072Z,4.40
2023-05-15T21:35:29.360Z,4.33
2023-05-15T21:37:55.875Z,4.43
2023-05-15T21:40:22.108Z,5.07
2023-05-15T21:42:48.408Z,5.00
2023-05-15T21:45:14.707Z,4.70
2023-05-15T21:47:40.989Z,4.93
2023-05-15T21:50:07.593Z,5.37
2023-05-15T21:52:33.832Z,5.47
2023-05-15T21:55:00.094Z,5.10
2023-05-15T21:57:26.361Z,5.00
2023-05-15T21:59:52.610Z,5.23
2023-05-15T22:02:18.853Z,5.10
2023-05-15T22:04:45.599Z,4.87
2023-05-15T22:07:14.712Z,5.13
2023-05-15T22:09:41.083Z,4.93
2023-05-15T22:12:07.510Z,4.73
2023-05-15T22:14:34.966Z,5.37
2023-05-15T22:17:01.516Z,5.40
2023-05-15T22:19:33.133Z,5.67
2023-05-15T22:22:00.861Z,4.77
2023-05-15T22:24:27.281Z,5.20
2023-05-15T22:26:53.557Z,5.57
2023-05-15T22:29:19.833Z,5.20
2023-05-15T22:31:46.162Z,5.53
2023-05-15T22:34:12.469Z,5.00
2023-05-15T22:36:38.746Z,5.07
2023-05-15T22:39:05.075Z,5.63
2023-05-15T22:41:31.488Z,5.87
2023-05-15T22:43:57.738Z,5.30
2023-05-15T22:46:24.169Z,6.03
2023-05-15T22:48:53.006Z,5.80
2023-05-15T22:51:19.321Z,6.07
2023-05-15T22:53:45.567Z,5.57
2023-05-15T22:56:11.974Z,5.40
2023-05-15T22:58:38.559Z,6.00
2023-05-15T23:01:04.863Z,5.80
2023-05-15T23:03:31.281Z,5.57
2023-05-15T23:05:57.571Z,5.73
2023-05-15T23:08:24.299Z,6.03
2023-05-15T23:10:50.620Z,6.33
2023-05-15T23:13:16.878Z,6.03
2023-05-15T23:15:44.181Z,6.70
2023-05-15T23:18:10.835Z,6.70
2023-05-15T23:20:37.553Z,6.37
2023-05-15T23:23:03.900Z,6.83
2023-05-15T23:25:30.602Z,8.03
2023-05-15T23:27:56.911Z,7.27
2023-05-15T23:30:23.223Z,6.87
2023-05-15T23:32:50.421Z,6.67
2023-05-15T23:35:16.720Z,6.33
2023-05-15T23:37:42.929Z,7.80
2023-05-15T23:40:09.370Z,7.70
2023-05-15T23:42:35.606Z,6.60
2023-05-15T23:45:02.007Z,7.43
2023-05-15T23:47:28.363Z,7.83
2023-05-15T23:49:54.680Z,6.90
2023-05-15T23:52:20.909Z,7.03
2023-05-15T23:54:47.141Z,6.77
2023-05-15T23:57:14.133Z,6.43
2023-05-15T23:59:40.636Z,7.37
